Time;durP1;ratioP1;P1;durP2;ratioP2;P2;SDS_P1;SDS_P2;PMS_P1;PMS_P2;Temp;Humidity;BMP_temperature;BMP_pressure;BME280_temperature;BME280_humidity;BME280_pressure;Samples;Min_cycle;Max_cycle;Signal;HPM_P1;HPM_P2
2023/09/26 00:00:19;;;;;;;10.20;3.33;;;9.40;99.90;;;8.31;100.00;98237.75;4964376;28;20650;-73
2023/09/26 00:02:49;;;;;;;5.35;2.35;;;9.40;99.90;;;8.36;100.00;98230.75;4969860;28;20579;-73
2023/09/26 00:05:19;;;;;;;7.68;2.78;;;9.40;99.90;;;8.33;100.00;98228.25;4983048;28;20046;-73
2023/09/26 00:07:48;;;;;;;4.82;2.15;;;9.50;99.90;;;8.37;100.00;98228.13;4979532;28;20057;-73
2023/09/26 00:10:16;;;;;;;5.82;2.85;;;9.50;99.90;;;8.45;100.00;98232.31;4992367;28;20054;-73
2023/09/26 00:12:45;;;;;;;4.47;2.40;;;9.40;99.90;;;8.50;100.00;98230.44;4968594;28;20077;-73
2023/09/26 00:15:12;;;;;;;8.05;2.70;;;9.50;99.90;;;8.48;100.00;98232.22;4984670;28;20134;-74
2023/09/26 00:17:40;;;;;;;6.07;2.90;;;9.60;99.90;;;8.32;100.00;98232.53;4969297;28;20916;-73
2023/09/26 00:20:12;;;;;;;4.50;2.53;;;9.50;99.90;;;8.36;100.00;98228.16;4984116;28;20065;-72
2023/09/26 00:22:39;;;;;;;3.72;2.15;;;9.50;99.90;;;8.30;100.00;98238.63;4966664;28;20046;-73
2023/09/26 00:25:07;;;;;;;4.55;2.53;;;9.50;99.90;;;8.27;100.00;98228.38;4967644;28;20050;-73
2023/09/26 00:27:34;;;;;;;6.05;2.13;;;9.50;99.90;;;8.34;100.00;98229.91;4965109;28;20043;-73
2023/09/26 00:30:01;;;;;;;4.95;1.95;;;9.50;99.90;;;8.24;100.00;98228.44;4985147;28;20128;-73
2023/09/26 00:32:30;;;;;;;4.38;2.25;;;9.50;99.90;;;8.08;100.00;98225.34;4984170;28;20141;-73
2023/09/26 00:34:57;;;;;;;6.93;2.67;;;9.40;99.90;;;8.15;100.00;98230.34;4968630;28;20055;-73
2023/09/26 00:37:24;;;;;;;10.50;2.22;;;9.30;99.90;;;8.12;100.00;98232.16;4981073;28;20061;-73
2023/09/26 00:39:53;;;;;;;3.55;2.10;;;9.30;99.90;;;8.27;100.00;98226.63;4985969;28;20149;-73
2023/09/26 00:42:20;;;;;;;6.15;2.00;;;9.30;99.90;;;8.27;100.00;98230.94;4970270;28;20065;-73
2023/09/26 00:44:49;;;;;;;3.47;1.50;;;9.30;99.90;;;8.21;100.00;98229.38;4970811;28;20101;-73
2023/09/26 00:47:16;;;;;;;5.25;1.80;;;9.30;99.90;;;8.18;100.00;98232.84;4970027;28;20140;-73
2023/09/26 00:49:43;;;;;;;5.00;2.30;;;9.40;99.90;;;8.17;100.00;98233.75;4970418;28;20046;-73
2023/09/26 00:52:11;;;;;;;9.55;2.58;;;9.30;99.90;;;8.10;100.00;98229.59;4968057;28;20074;-73
2023/09/26 00:54:39;;;;;;;4.72;2.05;;;9.30;99.90;;;8.14;100.00;98228.66;4970009;28;20391;-73
2023/09/26 00:57:08;;;;;;;6.50;2.25;;;9.20;99.90;;;8.03;100.00;98232.34;4951453;28;20050;-73
2023/09/26 00:59:37;;;;;;;7.93;2.40;;;9.30;99.90;;;8.00;100.00;98232.41;4985107;28;20506;-74
2023/09/26 01:02:05;;;;;;;5.50;2.15;;;9.20;99.90;;;8.01;100.00;98231.53;4965211;28;20058;-73
2023/09/26 01:04:32;;;;;;;3.63;1.60;;;9.20;99.90;;;8.02;100.00;98230.66;4982617;28;20062;-74
2023/09/26 01:06:59;;;;;;;4.60;1.98;;;9.20;99.90;;;7.94;100.00;98231.66;4963311;28;20050;-73
2023/09/26 01:09:27;;;;;;;4.68;1.88;;;9.10;99.90;;;7.82;100.00;98220.72;4968662;28;20050;-74
2023/09/26 01:11:54;;;;;;;5.80;2.42;;;9.10;99.90;;;7.91;100.00;98229.16;4977913;28;20043;-73
2023/09/26 01:14:21;;;;;;;3.78;1.85;;;9.10;99.90;;;8.01;100.00;98213.44;4984170;28;20054;-73
2023/09/26 01:16:55;;;;;;;4.38;2.08;;;9.10;99.90;;;8.08;100.00;98215.00;4967161;28;20399;-73
2023/09/26 01:19:23;;;;;;;3.50;1.70;;;9.10;99.90;;;7.75;100.00;98214.84;4966856;28;20050;-73
2023/09/26 01:21:50;;;;;;;4.68;2.00;;;9.10;99.90;;;7.88;100.00;98211.13;4966846;28;20046;-73
2023/09/26 01:24:18;;;;;;;5.13;1.45;;;9.00;99.90;;;8.04;100.00;98211.63;4968809;28;20050;-73
2023/09/26 01:26:45;;;;;;;2.80;1.48;;;9.00;99.90;;;8.03;100.00;98209.94;4965291;28;20087;-74
2023/09/26 01:29:12;;;;;;;4.35;1.50;;;9.10;99.90;;;8.01;100.00;98213.44;4975453;28;20057;-73
2023/09/26 01:31:39;;;;;;;3.25;1.50;;;9.20;99.90;;;7.99;100.00;98210.88;4983241;28;20368;-73
2023/09/26 01:34:07;;;;;;;4.75;2.08;;;9.10;99.90;;;7.93;100.00;98205.84;4966534;28;20042;-73
2023/09/26 01:36:34;;;;;;;4.38;1.95;;;9.10;99.90;;;7.86;100.00;98201.69;4965524;28;20054;-73
2023/09/26 01:39:02;;;;;;;5.57;2.40;;;9.10;99.90;;;7.82;100.00;98206.06;4963950;28;20129;-74
2023/09/26 01:41:30;;;;;;;5.45;2.60;;;9.10;99.90;;;7.75;100.00;98204.50;4966977;28;20419;-73
2023/09/26 01:43:57;;;;;;;3.28;1.73;;;9.00;99.90;;;7.83;100.00;98204.34;4966314;28;20077;-74
2023/09/26 01:46:25;;;;;;;5.75;2.33;;;9.00;99.90;;;7.75;100.00;98207.09;4963827;28;20435;-74
2023/09/26 01:48:53;;;;;;;3.88;2.08;;;9.00;99.90;;;7.65;100.00;98209.03;4968107;28;20054;-73
2023/09/26 01:51:20;;;;;;;4.07;2.17;;;8.90;99.90;;;7.62;100.00;98195.31;4978416;28;20133;-73
2023/09/26 01:53:48;;;;;;;4.50;2.50;;;8.90;99.90;;;7.72;100.00;98194.25;4964890;28;20050;-74
2023/09/26 01:56:16;;;;;;;5.25;2.10;;;8.90;99.90;;;7.77;100.00;98191.56;4979615;28;20106;-76
2023/09/26 01:58:43;;;;;;;3.58;1.73;;;8.90;99.90;;;7.71;100.00;98188.22;4963776;28;20129;-74
2023/09/26 02:01:10;;;;;;;4.50;1.83;;;8.90;99.90;;;7.73;100.00;98185.59;4982187;28;20510;-73
2023/09/26 02:03:38;;;;;;;3.90;1.60;;;8.90;99.90;;;7.62;100.00;98184.97;4967947;28;20411;-75
2023/09/26 02:06:05;;;;;;;6.30;1.23;;;8.90;99.90;;;7.69;100.00;98183.97;4967692;28;20116;-75
2023/09/26 02:08:32;;;;;;;5.35;2.03;;;8.90;99.90;;;7.65;100.00;98180.59;4965416;28;20054;-73
2023/09/26 02:11:00;;;;;;;4.68;2.13;;;8.90;99.90;;;7.60;100.00;98184.19;4982935;28;20400;-73
2023/09/26 02:13:27;;;;;;;4.03;1.58;;;8.80;99.90;;;7.47;100.00;98194.75;4981064;28;20061;-73
2023/09/26 02:15:57;;;;;;;2.92;1.23;;;8.80;99.90;;;7.56;100.00;98182.53;4978936;28;20108;-73
2023/09/26 02:18:24;;;;;;;4.50;1.73;;;8.70;99.90;;;7.61;100.00;98181.53;4982521;28;20058;-73
2023/09/26 02:20:51;;;;;;;4.20;1.17;;;8.60;99.90;;;7.49;100.00;98177.47;4982537;28;20054;-74
2023/09/26 02:23:19;;;;;;;4.03;1.48;;;8.60;99.90;;;7.53;100.00;98181.72;4963630;28;20058;-73
2023/09/26 02:25:52;;;;;;;4.32;1.48;;;8.60;99.90;;;7.55;100.00;98181.69;4964526;28;20105;-73
2023/09/26 02:28:20;;;;;;;7.53;1.90;;;8.60;99.90;;;7.55;100.00;98181.69;4964803;28;20462;-75
2023/09/26 02:30:47;;;;;;;3.67;1.65;;;8.60;99.90;;;7.48;100.00;98172.34;4982093;28;20128;-73
2023/09/26 02:33:14;;;;;;;4.82;1.65;;;8.60;99.90;;;7.49;100.00;98180.06;4980409;28;20053;-76
2023/09/26 02:35:41;;;;;;;2.35;1.10;;;8.60;99.90;;;7.52;100.00;98179.16;4965095;28;20648;-76
2023/09/26 02:38:09;;;;;;;4.47;1.67;;;8.60;99.90;;;7.64;100.00;98183.19;4967235;28;20050;-75
2023/09/26 02:40:36;;;;;;;3.30;1.38;;;8.60;99.90;;;7.39;100.00;98188.91;4963203;28;20057;-75
2023/09/26 02:43:03;;;;;;;4.63;1.50;;;8.60;99.90;;;7.42;100.00;98193.16;4964397;28;20042;-76
2023/09/26 02:45:31;;;;;;;3.10;1.67;;;8.50;99.90;;;7.48;100.00;98188.72;4982623;28;20053;-76
2023/09/26 02:47:59;;;;;;;4.82;1.88;;;8.60;99.90;;;7.47;100.00;98179.25;4968510;28;20160;-75
2023/09/26 02:50:26;;;;;;;4.68;2.33;;;8.60;99.90;;;7.46;100.00;98179.28;4964804;28;20141;-75
2023/09/26 02:52:54;;;;;;;3.45;1.65;;;8.70;99.90;;;7.36;100.00;98185.50;4983268;28;20050;-75
2023/09/26 02:55:21;;;;;;;3.25;1.60;;;8.60;99.90;;;7.41;100.00;98179.41;4966400;28;20109;-75
2023/09/26 02:57:48;;;;;;;3.35;1.98;;;8.60;99.90;;;7.48;100.00;98177.50;4977441;28;20086;-76
2023/09/26 03:00:19;;;;;;;3.55;1.85;;;8.60;99.90;;;7.34;100.00;98175.19;4964266;28;20058;-75
2023/09/26 03:02:49;;;;;;;3.67;1.60;;;8.50;99.90;;;7.27;100.00;98176.22;4966289;28;20133;-75
2023/09/26 03:05:17;;;;;;;5.50;2.42;;;8.50;99.90;;;7.29;100.00;98175.28;4966706;28;20140;-75
2023/09/26 03:07:45;;;;;;;3.70;1.83;;;8.50;99.90;;;7.26;100.00;98164.19;4983095;28;20046;-75
2023/09/26 03:10:14;;;;;;;3.83;1.67;;;8.40;99.90;;;7.07;100.00;98171.44;4964930;28;20046;-75
2023/09/26 03:12:46;;;;;;;4.38;2.05;;;8.40;99.90;;;7.12;100.00;98165.31;4964314;28;20126;-75
2023/09/26 03:15:14;;;;;;;4.25;2.03;;;8.40;99.90;;;7.23;100.00;98169.41;4965640;28;20058;-75
2023/09/26 03:17:42;;;;;;;6.53;2.28;;;8.40;99.90;;;7.21;100.00;98163.44;4951169;28;20120;-75
2023/09/26 03:20:10;;;;;;;4.07;1.75;;;8.40;99.90;;;7.18;100.00;98156.59;4965642;28;20064;-75
2023/09/26 03:22:37;;;;;;;7.70;2.78;;;8.40;99.90;;;7.08;100.00;98163.66;4965426;28;20047;-75
2023/09/26 03:25:05;;;;;;;7.32;2.17;;;8.40;99.90;;;7.11;100.00;98157.59;4964679;28;20054;-73
2023/09/26 03:27:33;;;;;;;3.70;1.92;;;8.30;99.90;;;7.15;100.00;98161.81;4965931;28;20105;-74
2023/09/26 03:30:00;;;;;;;5.00;2.05;;;8.30;99.90;;;7.10;100.00;98156.75;4983482;28;20458;-73
2023/09/26 03:32:28;;;;;;;3.25;1.65;;;8.40;99.90;;;7.19;100.00;98158.31;4966916;28;20145;-73
2023/09/26 03:34:55;;;;;;;5.38;2.08;;;8.30;99.90;;;7.14;100.00;98154.97;4980904;28;20050;-75
2023/09/26 03:37:23;;;;;;;4.18;2.45;;;8.30;99.90;;;7.02;100.00;98156.03;4966503;28;20467;-73
2023/09/26 03:39:50;;;;;;;4.47;2.45;;;8.30;99.90;;;7.00;100.00;98159.53;4986310;28;20464;-74
2023/09/26 03:42:17;;;;;;;4.07;2.45;;;8.20;99.90;;;7.04;100.00;98156.84;4953628;28;20046;-74
2023/09/26 03:44:44;;;;;;;5.05;1.77;;;8.20;99.90;;;7.02;100.00;98158.59;4953925;28;20054;-74
2023/09/26 03:47:11;;;;;;;3.60;1.92;;;8.20;99.90;;;6.91;100.00;98161.41;4954941;28;20078;-73
2023/09/26 03:49:39;;;;;;;4.95;2.40;;;8.20;99.90;;;6.88;100.00;98155.44;4984364;28;20042;-73
2023/09/26 03:52:06;;;;;;;4.85;2.10;;;8.20;99.90;;;6.95;100.00;98151.03;4963143;28;20129;-73
2023/09/26 03:54:34;;;;;;;2.97;1.33;;;8.10;99.90;;;6.85;100.00;98151.19;4966436;28;20518;-73
2023/09/26 03:57:04;;;;;;;4.68;2.05;;;8.10;99.90;;;6.76;100.00;98148.78;4984980;28;20050;-74
2023/09/26 03:59:32;;;;;;;3.30;1.60;;;8.10;99.90;;;6.81;100.00;98146.13;4976494;28;20050;-73
2023/09/26 04:01:59;;;;;;;4.32;1.83;;;8.00;99.90;;;6.82;100.00;98143.53;4968715;28;20156;-73
2023/09/26 04:04:27;;;;;;;3.58;1.67;;;8.00;99.90;;;6.90;100.00;98151.09;4967098;28;20053;-75
2023/09/26 04:06:54;;;;;;;4.88;1.58;;;8.10;99.90;;;6.88;100.00;98139.97;4970309;28;20470;-74
2023/09/26 04:09:21;;;;;;;3.63;1.73;;;8.00;99.90;;;6.95;100.00;98140.69;4970302;28;20426;-74
2023/09/26 04:11:49;;;;;;;3.15;1.35;;;8.10;99.90;;;6.93;100.00;98135.56;4983298;28;20125;-73
2023/09/26 04:14:16;;;;;;;5.50;1.33;;;8.10;99.90;;;6.98;100.00;98135.47;4984215;28;20050;-73
2023/09/26 04:16:43;;;;;;;2.92;1.50;;;8.10;99.90;;;6.72;100.00;98143.72;4985048;28;20050;-74
2023/09/26 04:19:10;;;;;;;4.75;1.48;;;8.00;99.90;;;6.59;100.00;98145.63;4983998;28;20058;-73
2023/09/26 04:21:38;;;;;;;3.47;1.60;;;8.00;99.90;;;6.66;100.00;98140.38;4981942;28;20062;-73
2023/09/26 04:24:06;;;;;;;3.70;1.40;;;7.90;99.90;;;6.75;100.00;98143.63;4966336;28;20454;-73
2023/09/26 04:26:33;;;;;;;2.72;1.30;;;7.90;99.90;;;6.74;100.00;98141.94;4968910;28;20418;-73
2023/09/26 04:29:00;;;;;;;5.47;1.45;;;7.90;99.90;;;6.66;100.00;98142.06;4984092;28;20075;-74
2023/09/26 04:31:28;;;;;;;4.90;2.13;;;7.80;99.90;;;6.75;100.00;98141.94;4985025;28;20109;-74
2023/09/26 04:33:56;;;;;;;5.35;2.28;;;7.80;99.90;;;6.59;100.00;98143.94;4983155;28;20548;-74
2023/09/26 04:36:23;;;;;;;4.00;1.80;;;7.80;99.90;;;6.49;100.00;98147.53;4966362;28;20394;-76
2023/09/26 04:38:50;;;;;;;4.05;1.90;;;7.70;99.90;;;6.53;100.00;98138.03;4982084;28;20124;-74
2023/09/26 04:41:17;;;;;;;4.97;1.80;;;7.70;99.90;;;6.50;100.00;98138.94;4963815;28;20177;-74
2023/09/26 04:43:44;;;;;;;4.88;1.42;;;7.60;99.90;;;6.57;100.00;98137.06;4969829;28;20673;-73
2023/09/26 04:46:12;;;;;;;2.20;1.15;;;7.60;99.90;;;6.60;100.00;98130.16;4983657;28;20160;-74
2023/09/26 04:48:42;;;;;;;4.10;1.50;;;7.70;99.90;;;6.59;100.00;98138.78;4982385;28;20047;-75
2023/09/26 04:51:12;;;;;;;4.47;2.15;;;7.70;99.90;;;6.66;100.00;98132.63;4983500;28;20137;-74
2023/09/26 04:53:43;;;;;;;5.95;1.75;;;7.70;99.90;;;6.73;100.00;98128.22;4984766;28;20047;-75
2023/09/26 04:56:11;;;;;;;3.40;1.50;;;7.80;99.90;;;6.75;100.00;98129.03;4982383;28;20053;-73
2023/09/26 04:58:38;;;;;;;4.20;1.88;;;7.80;99.90;;;6.61;100.00;98133.56;4951384;28;20054;-73
2023/09/26 05:01:15;;;;;;;3.38;1.38;;;7.80;99.90;;;6.68;100.00;98135.16;4968770;28;20069;-75
2023/09/26 05:03:43;;;;;;;6.88;2.05;;;7.80;99.90;;;6.68;100.00;98128.28;4978914;28;20367;-75
2023/09/26 05:06:12;;;;;;;3.97;1.63;;;7.80;99.90;;;6.58;100.00;98133.63;4981191;28;20051;-73
2023/09/26 05:08:39;;;;;;;3.17;1.95;;;7.80;99.90;;;6.71;100.00;98135.13;4952211;28;20052;-74
2023/09/26 05:11:13;;;;;;;4.22;1.25;;;7.80;99.90;;;6.70;100.00;98130.81;4982999;28;20058;-76
2023/09/26 05:13:40;;;;;;;;;;;7.80;99.90;;;6.63;100.00;98135.25;4964823;28;20065;-75
2023/09/26 05:16:10;;;;;;;6.47;1.80;;;7.80;99.90;;;6.52;100.00;98131.16;4984090;28;19960;-76
2023/09/26 05:18:38;;;;;;;4.20;1.73;;;7.70;99.90;;;6.44;100.00;98134.72;4967129;28;20050;-76
2023/09/26 05:21:07;;;;;;;3.97;1.52;;;7.70;99.90;;;6.41;100.00;98139.06;4985153;28;20121;-75
2023/09/26 05:23:35;;;;;;;4.32;1.70;;;7.70;99.90;;;6.54;100.00;98137.13;4970671;28;20522;-75
2023/09/26 05:26:11;;;;;;;6.07;1.80;;;7.70;99.90;;;6.66;100.00;98135.22;4968855;28;20062;-75
2023/09/26 05:28:38;;;;;;;7.80;2.40;;;7.70;99.90;;;6.62;100.00;98140.44;4969914;28;20526;-75
2023/09/26 05:31:06;;;;;;;3.47;1.80;;;7.80;99.90;;;6.74;100.00;98136.78;4970547;28;20074;-75
2023/09/26 05:33:35;;;;;;;4.85;2.17;;;7.80;99.90;;;6.68;100.00;98135.16;4969348;28;20086;-76
2023/09/26 05:36:04;;;;;;;6.07;2.33;;;7.80;99.90;;;6.61;100.00;98138.72;4984185;28;20061;-75
2023/09/26 05:38:31;;;;;;;6.85;2.15;;;7.80;99.90;;;6.46;100.00;98140.72;4981711;28;20046;-75
2023/09/26 05:40:59;;;;;;;3.53;1.85;;;7.80;99.90;;;6.48;100.00;98141.53;4967238;28;20060;-76
2023/09/26 05:43:27;;;;;;;5.43;2.40;;;7.70;99.90;;;6.61;100.00;98142.16;4964507;28;20113;-76
2023/09/26 05:45:54;;;;;;;6.03;2.35;;;7.80;99.90;;;6.50;100.00;98144.09;4980839;28;20182;-75
2023/09/26 05:48:24;;;;;;;6.18;2.38;;;7.80;99.90;;;6.63;100.00;98142.97;4966179;28;20511;-76
2023/09/26 05:51:02;;;;;;;3.70;1.58;;;7.70;99.90;;;6.61;100.00;98149.88;4984522;28;20050;-76
2023/09/26 05:53:32;;;;;;;5.32;2.53;;;7.70;99.90;;;6.64;100.00;98149.84;4969250;28;20506;-75
2023/09/26 05:55:59;;;;;;;6.47;2.28;;;7.70;99.90;;;6.62;100.00;98149.03;4983744;28;20125;-75
2023/09/26 05:58:27;;;;;;;4.10;2.90;;;7.80;99.90;;;6.61;100.00;98149.88;4978458;28;20055;-75
2023/09/26 06:00:56;;;;;;;4.60;1.92;;;7.70;99.90;;;6.60;100.00;98148.19;4981766;28;20730;-75
2023/09/26 06:03:24;;;;;;;3.70;1.48;;;7.80;99.90;;;6.73;100.00;98158.28;4984806;28;20043;-75
2023/09/26 06:05:51;;;;;;;3.47;1.90;;;7.70;99.90;;;6.81;100.00;98156.44;4981870;28;20050;-75
2023/09/26 06:08:19;;;;;;;4.22;1.70;;;7.80;99.90;;;7.00;100.00;98156.94;4985045;28;20072;-76
2023/09/26 06:10:52;;;;;;;3.35;1.65;;;7.80;99.90;;;7.05;100.00;98161.16;4982943;28;20047;-75
2023/09/26 06:13:20;;;;;;;5.70;2.60;;;7.90;99.90;;;7.03;100.00;98165.50;4953367;28;20057;-75
2023/09/26 06:15:48;;;;;;;5.47;1.90;;;8.00;99.90;;;6.94;100.00;98164.81;4953728;28;20054;-76
2023/09/26 06:18:16;;;;;;;5.47;1.73;;;8.00;99.90;;;7.09;100.00;98164.50;4968336;28;20050;-76
2023/09/26 06:20:44;;;;;;;4.75;2.08;;;8.00;99.90;;;7.12;100.00;98169.63;4967576;28;20129;-76
2023/09/26 06:23:12;;;;;;;2.95;1.40;;;8.10;99.90;;;7.29;100.00;98164.97;4968729;28;20047;-75
2023/09/26 06:25:40;;;;;;;6.90;2.45;;;8.10;99.90;;;7.22;100.00;98171.13;4965484;28;20054;-76
2023/09/26 06:28:20;;;;;;;4.53;2.10;;;8.10;99.90;;;7.33;100.00;98176.09;4969300;28;20077;-75
2023/09/26 06:30:48;;;;;;;4.55;2.10;;;8.20;99.90;;;7.44;100.00;98165.56;4982130;28;20050;-75
2023/09/26 06:33:16;;;;;;;6.13;2.55;;;8.20;99.90;;;7.47;100.00;98165.47;4984241;28;20051;-75
2023/09/26 06:35:43;;;;;;;5.35;2.72;;;8.30;99.90;;;7.60;100.00;98173.84;4967609;28;20157;-75
2023/09/26 06:38:11;;;;;;;4.70;2.72;;;8.40;99.90;;;7.66;100.00;98169.41;4966220;28;20067;-76
2023/09/26 06:40:39;;;;;;;5.25;2.83;;;8.50;99.90;;;7.70;100.00;98171.00;4966534;28;20054;-76
2023/09/26 06:43:06;;;;;;;5.90;3.10;;;8.60;99.90;;;7.80;100.00;98175.97;4970501;28;20436;-75
2023/09/26 06:45:39;;;;;;;6.45;2.88;;;8.70;99.90;;;7.83;100.00;98170.75;4985000;28;20062;-75
2023/09/26 06:48:06;;;;;;;6.57;2.80;;;8.80;99.90;;;8.01;100.00;98174.66;4974345;28;20057;-75
2023/09/26 06:50:34;;;;;;;6.88;3.38;;;8.90;99.90;;;8.28;100.00;98173.16;4970487;28;20054;-75
2023/09/26 06:53:02;;;;;;;7.30;3.35;;;9.00;99.90;;;8.44;100.00;98171.09;4984986;28;20042;-75
2023/09/26 06:55:29;;;;;;;5.35;2.47;;;9.10;99.90;;;8.56;100.00;98170.78;4968679;28;20065;-75
2023/09/26 06:57:57;;;;;;;5.70;2.65;;;9.30;99.90;;;8.71;100.00;98172.13;4962182;28;20167;-75
2023/09/26 07:00:24;;;;;;;9.07;4.38;;;9.40;99.90;;;8.96;100.00;98162.84;4969942;28;20050;-75
2023/09/26 07:02:51;;;;;;;6.28;4.05;;;9.50;99.90;;;9.20;100.00;98158.72;4968581;28;20529;-76
2023/09/26 07:05:18;;;;;;;12.88;5.63;;;9.60;99.90;;;9.41;100.00;98157.28;4951995;28;20061;-76
2023/09/26 07:07:45;;;;;;;6.85;4.53;;;9.90;99.90;;;9.70;100.00;98154.75;4948311;28;20050;-76
2023/09/26 07:10:12;;;;;;;9.68;5.82;;;10.10;99.90;;;10.02;100.00;98157.19;4967428;28;20574;-76
2023/09/26 07:12:40;;;;;;;7.78;4.40;;;10.30;99.90;;;10.27;100.00;98153.84;4971299;28;20126;-77
2023/09/26 07:15:12;;;;;;;7.95;4.57;;;10.50;99.90;;;10.54;100.00;98152.13;4972986;28;20054;-76
2023/09/26 07:17:40;;;;;;;7.55;4.20;;;10.70;99.90;;;10.72;100.00;98149.78;4985993;28;20045;-74
2023/09/26 07:20:15;;;;;;;5.97;3.67;;;11.00;99.90;;;11.03;100.00;98152.19;4986037;28;20043;-76
2023/09/26 07:22:44;;;;;;;7.43;3.90;;;11.20;99.90;;;11.34;100.00;98143.31;4984347;28;20400;-76
2023/09/26 07:25:12;;;;;;;10.10;3.90;;;11.40;99.90;;;11.62;100.00;98146.56;4988588;28;20050;-76
2023/09/26 07:27:40;;;;;;;6.57;4.03;;;11.70;99.90;;;11.81;100.00;98149.28;4952882;28;20046;-73
2023/09/26 07:30:11;;;;;;;4.78;2.80;;;11.90;99.90;;;12.08;100.00;98143.97;4987219;28;20047;-74
2023/09/26 07:32:39;;;;;;;6.57;3.20;;;12.20;99.90;;;12.50;100.00;98148.38;4970721;28;21340;-76
2023/09/26 07:35:07;;;;;;;6.10;2.88;;;12.40;99.90;;;13.16;100.00;98146.41;4949501;28;20059;-73
2023/09/26 07:37:34;;;;;;;5.38;2.15;;;12.70;99.90;;;14.16;100.00;98140.97;4991789;28;20081;-73
2023/09/26 07:40:04;;;;;;;6.15;1.88;;;12.90;99.90;;;14.97;100.00;98131.75;4986479;28;20074;-73
2023/09/26 07:42:33;;;;;;;5.15;2.30;;;13.30;99.90;;;15.75;100.00;98124.16;4985914;28;20542;-73
2023/09/26 07:45:00;;;;;;;6.82;2.30;;;13.90;99.90;;;16.56;100.00;98108.25;4986872;28;20046;-74
2023/09/26 07:47:30;;;;;;;5.07;2.13;;;14.90;99.90;;;16.96;100.00;98107.69;4973942;28;20055;-73
2023/09/26 07:49:57;;;;;;;4.70;2.28;;;16.00;99.90;;;17.09;100.00;98119.13;4973131;28;20050;-74
2023/09/26 07:52:26;;;;;;;3.92;2.28;;;17.30;99.90;;;17.59;100.00;98119.59;4986666;28;20053;-74
2023/09/26 07:54:54;;;;;;;3.60;1.90;;;18.40;99.90;;;18.28;100.00;98130.97;4981212;28;20095;-74
2023/09/26 07:57:21;;;;;;;2.95;1.67;;;19.60;99.90;;;19.15;100.00;98126.94;4972778;28;20051;-74
2023/09/26 07:59:49;;;;;;;3.50;1.48;;;20.60;99.90;;;19.72;100.00;98134.38;4989687;28;20046;-74
2023/09/26 08:02:16;;;;;;;3.05;1.65;;;21.40;99.90;;;20.60;100.00;98143.88;4954544;28;20795;-74
2023/09/26 08:04:44;;;;;;;3.70;1.75;;;22.20;99.90;;;21.04;100.00;98148.41;4972181;28;20054;-74
2023/09/26 08:07:12;;;;;;;4.63;1.80;;;23.00;99.90;;;21.37;100.00;98152.09;4988341;28;20050;-74
2023/09/26 08:09:42;;;;;;;4.70;1.98;;;23.40;99.90;;;21.18;100.00;98155.28;4970776;28;20525;-74
2023/09/26 08:12:09;;;;;;;4.38;1.63;;;;;;;21.04;100.00;98156.34;4987259;28;20059;-74
2023/09/26 08:14:37;;;;;;;5.20;2.10;;;23.70;99.90;;;21.93;100.00;98157.34;4989858;28;20061;-73
2023/09/26 08:17:04;;;;;;;3.47;1.65;;;24.00;99.90;;;22.42;100.00;98159.66;4973446;28;20054;-74
2023/09/26 08:19:31;;;;;;;5.30;2.00;;;24.30;99.90;;;22.55;100.00;98165.63;4987140;28;20062;-74
2023/09/26 08:21:58;;;;;;;2.22;1.30;;;24.60;99.90;;;23.10;100.00;98163.69;4985048;28;20050;-74
2023/09/26 08:24:25;;;;;;;4.03;1.75;;;24.90;99.90;;;23.39;100.00;98166.50;4972130;28;20058;-74
2023/09/26 08:26:52;;;;;;;3.92;1.65;;;25.20;99.90;;;24.34;100.00;98156.53;4983671;28;20078;-75
2023/09/26 08:29:19;;;;;;;3.33;1.50;;;25.60;99.90;;;24.39;100.00;98155.13;4965829;28;20050;-74
2023/09/26 08:31:46;;;;;;;3.92;1.42;;;26.00;99.90;;;23.70;100.00;98161.22;4967607;28;20046;-74
2023/09/26 08:34:14;;;;;;;3.58;1.52;;;25.90;99.90;;;23.73;100.00;98154.81;4968659;28;20043;-74
2023/09/26 08:36:41;;;;;;;4.47;1.40;;;26.10;99.90;;;24.23;100.00;98154.84;4968090;28;20116;-74
2023/09/26 08:39:08;;;;;;;4.18;1.80;;;26.10;99.90;;;24.66;100.00;98156.28;4967864;28;20549;-74
2023/09/26 08:41:36;;;;;;;2.38;1.30;;;26.30;99.90;;;25.17;100.00;98143.63;4986819;28;20051;-74
2023/09/26 08:44:04;;;;;;;3.58;1.58;;;26.70;99.90;;;24.98;100.00;98136.56;4969250;28;20090;-74
2023/09/26 08:46:31;;;;;;;2.00;1.05;;;26.80;99.40;;;25.73;100.00;98142.78;4984029;28;20042;-74
2023/09/26 08:49:00;;;;;;;4.53;1.10;;;27.10;99.50;;;25.44;100.00;98137.56;4971936;28;20050;-74
2023/09/26 08:51:27;;;;;;;2.20;1.20;;;27.20;98.10;;;25.76;100.00;98136.31;4970409;28;20054;-74
2023/09/26 08:53:54;;;;;;;3.75;1.67;;;27.30;99.10;;;23.38;100.00;98148.94;4966546;28;20113;-74
2023/09/26 08:56:21;;;;;;;3.65;1.00;;;27.00;97.50;;;25.90;100.00;98133.19;4983738;28;20168;-75
2023/09/26 08:58:50;;;;;;;2.63;1.20;;;26.60;98.10;;;25.07;100.00;98138.34;4953990;28;20104;-74
2023/09/26 09:01:18;;;;;;;3.25;1.40;;;26.70;97.60;;;24.53;100.00;98131.84;4969851;28;20545;-74
2023/09/26 09:03:46;;;;;;;3.10;1.38;;;26.60;98.30;;;24.07;100.00;98139.44;4969722;28;20507;-74
2023/09/26 09:06:14;;;;;;;3.58;1.67;;;26.50;98.00;;;23.75;100.00;98145.78;4970084;28;20054;-75
2023/09/26 09:08:41;;;;;;;2.70;1.05;;;26.20;98.40;;;25.31;100.00;98129.91;4966811;28;20069;-75
2023/09/26 09:11:08;;;;;;;4.13;1.33;;;26.10;97.50;;;24.15;100.00;98141.41;4985079;28;20637;-75
2023/09/26 09:13:43;;;;;;;3.65;1.45;;;25.60;97.20;;;24.05;100.00;98135.25;4952122;28;20510;-74
2023/09/26 09:16:18;;;;;;;2.67;1.17;;;25.60;97.90;;;23.53;100.00;98143.28;4966656;28;20108;-75
2023/09/26 09:18:58;;;;;;;3.78;1.48;;;25.60;97.60;;;23.35;100.00;98149.19;4966945;28;20113;-76
2023/09/26 09:21:30;;;;;;;3.30;1.20;;;25.60;97.80;;;24.56;100.00;98135.06;4970549;28;20058;-76
2023/09/26 09:24:05;;;;;;;2.95;1.33;;;26.00;97.50;;;25.84;100.00;98129.28;4968532;28;20098;-76
2023/09/26 09:26:35;;;;;;;8.50;1.90;;;26.40;97.20;;;23.93;100.00;98143.34;4979761;28;20101;-75
2023/09/26 09:29:20;;;;;;;4.05;1.70;;;26.30;96.60;;;24.15;100.00;98142.28;4953693;28;20086;-76
2023/09/26 09:31:48;;;;;;;2.55;1.30;;;26.20;97.70;;;25.18;100.00;98130.25;4985645;28;20065;-76
2023/09/26 09:34:16;;;;;;;3.92;1.58;;;26.60;97.20;;;25.59;100.00;98124.63;4968818;28;20184;-76
2023/09/26 09:36:44;;;;;;;5.40;1.55;;;26.90;96.90;;;23.70;100.00;98129.41;4984213;28;20100;-76
2023/09/26 09:39:12;;;;;;;2.95;1.75;;;26.80;96.40;;;23.79;100.00;98131.28;4985122;28;20664;-76
2023/09/26 09:41:40;;;;;;;3.17;1.25;;;26.60;95.60;;;24.00;100.00;98135.66;4968254;28;20117;-76
2023/09/26 09:44:07;;;;;;;2.35;1.20;;;26.20;96.00;;;23.11;100.00;98138.09;4985237;28;20093;-76
2023/09/26 09:46:38;;;;;;;3.50;1.58;;;26.50;96.10;;;22.30;100.00;98143.00;4969101;28;20104;-76
2023/09/26 09:49:14;;;;;;;3.15;1.50;;;26.20;96.40;;;22.18;100.00;98142.16;4954679;28;20511;-76
2023/09/26 09:51:44;;;;;;;4.05;1.65;;;25.80;97.40;;;21.40;100.00;98143.09;4967560;28;20058;-76
2023/09/26 09:54:13;;;;;;;3.35;1.30;;;25.30;97.30;;;21.33;100.00;98145.34;4966573;28;20090;-76
2023/09/26 09:56:49;;;;;;;2.80;1.33;;;;;;;21.67;100.00;98140.94;4954263;28;20061;-76
2023/09/26 09:59:18;;;;;;;3.15;1.33;;;24.20;99.70;;;21.33;100.00;98136.59;4972152;28;20623;-76
2023/09/26 10:01:49;;;;;;;5.55;1.30;;;23.90;99.20;;;20.90;100.00;98135.44;4968762;28;20502;-76
2023/09/26 10:04:19;;;;;;;3.25;1.35;;;23.40;99.30;;;20.37;100.00;98135.00;4982935;28;20588;-75
2023/09/26 10:06:48;;;;;;;3.00;1.60;;;22.90;99.90;;;20.35;100.00;98136.91;4965161;28;20109;-75
2023/09/26 10:09:20;;;;;;;2.40;1.20;;;22.50;99.90;;;20.29;100.00;98138.19;4982703;28;20054;-75
2023/09/26 10:11:49;;;;;;;5.73;1.63;;;22.10;99.90;;;20.01;100.00;98129.66;4967695;28;20059;-75
2023/09/26 10:14:24;;;;;;;4.40;1.92;;;21.60;99.90;;;20.04;100.00;98125.94;4966430;28;20145;-76
2023/09/26 10:16:55;;;;;;;4.35;1.50;;;21.20;99.90;;;19.94;100.00;98130.22;4964312;28;20105;-75
2023/09/26 10:19:28;;;;;;;3.53;1.63;;;20.90;99.90;;;19.86;100.00;98125.47;4984561;28;20049;-76
2023/09/26 10:22:18;;;;;;;3.28;1.27;;;20.80;99.90;;;20.10;100.00;98129.97;4971592;28;20101;-75
2023/09/26 10:24:53;;;;;;;3.90;1.20;;;20.90;99.90;;;20.40;100.00;98124.22;4952870;28;20112;-75
2023/09/26 10:27:40;;;;;;;2.28;1.17;;;21.00;99.90;;;20.18;100.00;98120.50;4953379;28;20046;-76